Time;durP1;ratioP1;P1;durP2;ratioP2;P2;SDS_P1;SDS_P2;PMS_P1;PMS_P2;Temp;Humidity;BMP_temperature;BMP_pressure;BME280_temperature;BME280_humidity;BME280_pressure;Samples;Min_cycle;Max_cycle;Signal;HPM_P1;HPM_P2
2023/04/28 00:02:14;;;;;;;9.90;6.72;;;;;;;11.93;46.80;100065.41;5045967;28;20493;-57
2023/04/28 00:04:41;;;;;;;9.15;6.30;;;;;;;11.80;47.69;100064.44;5055259;28;20379;-57
2023/04/28 00:07:09;;;;;;;9.13;6.55;;;;;;;11.73;47.83;100053.75;5051271;28;20060;-57
2023/04/28 00:09:36;;;;;;;8.50;6.75;;;;;;;11.74;47.93;100049.84;5054744;28;20049;-57
2023/04/28 00:12:03;;;;;;;10.73;6.78;;;;;;;11.70;48.05;100042.47;5054460;28;20048;-57
2023/04/28 00:14:31;;;;;;;12.25;7.15;;;;;;;11.67;48.68;100038.34;5055130;28;20053;-57
2023/04/28 00:16:58;;;;;;;8.95;6.85;;;;;;;11.71;48.76;100030.94;5042610;28;20054;-59
2023/04/28 00:19:26;;;;;;;8.30;6.75;;;;;;;11.77;47.95;100038.00;5034564;28;20490;-57
2023/04/28 00:21:54;;;;;;;8.77;6.15;;;;;;;11.83;48.34;100032.25;5034480;28;20065;-57
2023/04/28 00:24:21;;;;;;;9.50;6.68;;;;;;;11.88;49.08;100043.22;5034737;28;20057;-57
2023/04/28 00:26:48;;;;;;;9.23;7.07;;;;;;;11.88;49.63;100040.44;5034696;28;20054;-57
2023/04/28 00:29:15;;;;;;;11.13;7.13;;;;;;;11.89;49.87;100039.31;5034931;28;20076;-57
2023/04/28 00:31:45;;;;;;;9.18;7.70;;;;;;;11.90;50.71;100036.16;5043979;28;20057;-58
2023/04/28 00:34:13;;;;;;;8.73;7.18;;;;;;;11.90;51.60;100027.00;5054323;28;20079;-58
2023/04/28 00:36:45;;;;;;;12.82;7.93;;;;;;;11.94;51.65;100019.59;5054717;28;20057;-57
2023/04/28 00:39:12;;;;;;;11.48;6.93;;;;;;;11.97;52.10;100013.34;5054466;28;20049;-58
2023/04/28 00:41:42;;;;;;;8.55;6.78;;;;;;;12.01;52.53;100008.72;5053776;28;20059;-58
2023/04/28 00:44:09;;;;;;;8.25;6.60;;;;;;;11.96;52.39;100001.34;5054737;28;20406;-58
2023/04/28 00:46:37;;;;;;;9.30;7.35;;;;;;;11.86;52.77;100001.69;5047854;28;20056;-58
2023/04/28 00:49:05;;;;;;;10.23;6.97;;;;;;;11.90;53.10;100007.44;5053243;28;20049;-58
2023/04/28 00:51:35;;;;;;;11.48;7.18;;;;;;;11.97;53.18;100010.56;5054718;28;20053;-58
2023/04/28 00:54:05;;;;;;;9.98;8.68;;;;;;;11.96;54.13;100012.50;5054564;28;20088;-58
2023/04/28 00:56:34;;;;;;;11.30;7.55;;;;;;;12.00;52.61;100012.66;5034620;28;20057;-58
2023/04/28 00:59:01;;;;;;;10.25;8.13;;;;;;;11.96;52.95;100003.31;5034435;28;20053;-58
2023/04/28 01:01:29;;;;;;;11.45;7.68;;;;;;;11.88;53.17;100002.19;5035376;28;20414;-58
2023/04/28 01:03:56;;;;;;;9.77;7.82;;;;;;;11.91;52.79;99993.16;5033943;28;20053;-58
2023/04/28 01:06:24;;;;;;;13.10;8.73;;;;;;;11.95;53.69;99987.75;5033797;28;20490;-58
2023/04/28 01:08:52;;;;;;;11.35;8.80;;;;;;;11.93;54.24;99984.47;5033583;28;20061;-58
2023/04/28 01:11:20;;;;;;;10.57;9.00;;;;;;;11.96;54.89;99990.19;5033668;28;20049;-58
2023/04/28 01:13:48;;;;;;;9.98;8.30;;;;;;;11.98;55.39;99987.06;5033296;28;20068;-58
2023/04/28 01:16:15;;;;;;;10.82;8.70;;;;;;;12.00;56.78;99984.75;5042356;28;20064;-58
2023/04/28 01:18:47;;;;;;;9.07;7.68;;;;;;;12.11;57.37;99986.00;5052363;28;20060;-58
2023/04/28 01:21:15;;;;;;;12.63;8.57;;;;;;;12.08;57.76;99983.09;5053864;28;20048;-58
2023/04/28 01:23:47;;;;;;;9.60;7.78;;;;;;;12.13;56.54;99980.91;5053941;28;20053;-58
2023/04/28 01:26:15;;;;;;;11.20;8.38;;;;;;;12.09;56.16;99976.31;5053451;28;20076;-58
2023/04/28 01:28:42;;;;;;;11.07;8.32;;;;;;;12.07;56.25;99976.66;5053862;28;20056;-58
2023/04/28 01:31:09;;;;;;;9.93;8.10;;;;;;;12.11;55.87;99980.41;5052575;28;20050;-58
2023/04/28 01:33:38;;;;;;;10.55;7.25;;;;;;;12.15;56.12;99981.38;5051012;28;20080;-58
2023/04/28 01:36:06;;;;;;;10.23;6.73;;;;;;;12.15;55.64;99975.78;5053505;28;20057;-58
2023/04/28 01:38:35;;;;;;;9.95;6.35;;;;;;;12.21;55.15;99968.06;5053516;28;20052;-58
2023/04/28 01:41:03;;;;;;;7.78;5.75;;;;;;;12.27;54.85;99969.50;5053296;28;20053;-58
2023/04/28 01:43:31;;;;;;;8.65;5.80;;;;;;;12.33;55.56;99965.34;5053521;28;20053;-58
2023/04/28 01:46:01;;;;;;;11.02;6.18;;;;;;;12.38;55.35;99967.13;5053280;28;20053;-58
2023/04/28 01:48:28;;;;;;;9.80;7.60;;;;;;;12.44;56.49;99970.53;5048852;28;20053;-58
2023/04/28 01:50:56;;;;;;;9.73;6.55;;;;;;;12.48;56.41;99968.69;5052764;28;20045;-58
2023/04/28 01:53:26;;;;;;;12.52;8.55;;;;;;;12.47;57.89;99965.06;5052507;28;20056;-58
2023/04/28 01:55:54;;;;;;;13.77;8.05;;;;;;;12.49;58.63;99970.31;5053093;28;20064;-58
2023/04/28 01:58:22;;;;;;;12.52;9.07;;;;;;;12.43;59.33;99958.56;5053227;28;20059;-58
2023/04/28 02:00:52;;;;;;;11.15;8.82;;;;;;;12.47;60.09;99965.06;5053039;28;20049;-58
2023/04/28 02:03:19;;;;;;;;;;;;;;;12.49;59.85;99962.75;5045158;28;20406;-58
2023/04/28 02:05:46;;;;;;;10.23;7.45;;;;;;;12.47;59.72;99964.25;5053201;28;19921;-58
2023/04/28 02:08:16;;;;;;;9.00;6.40;;;;;;;12.41;59.30;99965.63;5049494;28;20060;-58
2023/04/28 02:10:46;;;;;;;10.35;6.57;;;;;;;12.46;59.20;99963.44;5049350;28;20045;-58
2023/04/28 02:13:15;;;;;;;8.70;6.05;;;;;;;12.37;58.99;99977.47;5043519;28;20068;-58
2023/04/28 02:15:44;;;;;;;9.20;5.55;;;;;;;12.39;58.79;99960.38;5032748;28;20072;-59
2023/04/28 02:18:11;;;;;;;8.87;6.17;;;;;;;12.26;58.61;99959.47;5034760;28;20053;-58
2023/04/28 02:20:38;;;;;;;9.43;6.57;;;;;;;12.18;59.23;99961.19;5032521;28;20491;-58
2023/04/28 02:23:06;;;;;;;8.13;5.85;;;;;;;12.06;59.71;99960.25;5032735;28;20049;-58
2023/04/28 02:25:33;;;;;;;8.88;6.00;;;;;;;12.16;59.42;99959.88;5032695;28;20430;-58
2023/04/28 02:28:00;;;;;;;9.05;6.18;;;;;;;12.13;59.70;99955.78;5032492;28;20049;-61
2023/04/28 02:30:28;;;;;;;8.48;5.95;;;;;;;12.13;59.85;99955.78;5032902;28;20053;-58
2023/04/28 02:32:56;;;;;;;9.07;5.70;;;;;;;12.19;59.55;99964.78;5038220;28;20052;-58
2023/04/28 02:35:23;;;;;;;8.70;6.28;;;;;;;12.15;60.12;99967.41;5039691;28;20059;-58
2023/04/28 02:37:54;;;;;;;11.82;9.00;;;;;;;12.13;61.55;99972.53;5032902;28;20057;-58
2023/04/28 02:40:21;;;;;;;11.13;9.10;;;;;;;12.21;62.51;99972.81;5032569;28;20054;-58
2023/04/28 02:42:51;;;;;;;9.07;7.15;;;;;;;12.15;63.50;99970.22;5032479;28;20057;-58
2023/04/28 02:45:19;;;;;;;11.00;7.70;;;;;;;12.19;63.64;99950.81;5032687;28;20471;-58
2023/04/28 02:47:46;;;;;;;10.32;7.03;;;;;;;12.05;63.14;99953.03;5030789;28;20414;-58
2023/04/28 02:50:15;;;;;;;9.95;6.55;;;;;;;12.06;62.72;99949.91;5032685;28;20049;-58
2023/04/28 02:52:42;;;;;;;10.48;6.97;;;;;;;12.01;63.07;99952.91;5032354;28;20056;-58
2023/04/28 02:55:09;;;;;;;8.73;6.35;;;;;;;12.04;62.79;99946.63;5041426;28;20076;-58
2023/04/28 02:57:37;;;;;;;9.05;7.40;;;;;;;11.99;63.97;99944.06;5052068;28;20053;-58
2023/04/28 03:00:05;;;;;;;17.58;6.63;;;;;;;11.84;63.60;99944.56;5052365;28;20053;-58
2023/04/28 03:02:32;;;;;;;12.15;6.90;;;;;;;11.66;64.01;99947.44;5048463;28;20057;-58
2023/04/28 03:05:00;;;;;;;9.10;6.47;;;;;;;11.57;64.50;99949.47;5054153;28;20049;-58
2023/04/28 03:07:28;;;;;;;9.98;6.45;;;;;;;11.19;66.82;99936.28;5056040;28;20398;-58
2023/04/28 03:09:55;;;;;;;9.90;7.03;;;;;;;11.09;67.70;99931.06;5056439;28;20053;-58
2023/04/28 03:12:24;;;;;;;8.60;7.10;;;;;;;10.99;68.53;99932.22;5053964;28;20401;-58
2023/04/28 03:14:55;;;;;;;10.63;7.05;;;;;;;10.89;68.49;99938.16;5055940;28;20060;-58
2023/04/28 03:17:22;;;;;;;10.43;7.47;;;;;;;10.76;69.60;99932.41;5052614;28;20054;-58
2023/04/28 03:19:49;;;;;;;12.57;7.60;;;;;;;10.56;71.38;99933.91;5055262;28;20057;-58
2023/04/28 03:22:16;;;;;;;10.93;7.95;;;;;;;10.58;71.06;99930.78;5055690;28;20063;-58
2023/04/28 03:24:45;;;;;;;11.77;8.02;;;;;;;10.53;71.44;99928.19;5055809;28;20052;-58
2023/04/28 03:27:13;;;;;;;13.75;8.50;;;;;;;10.36;71.07;99927.00;5055660;28;20061;-58
2023/04/28 03:29:40;;;;;;;13.55;9.32;;;;;;;10.45;71.81;99932.59;5055961;28;20048;-58
2023/04/28 03:32:10;;;;;;;11.45;8.82;;;;;;;10.47;73.15;99924.72;5053006;28;20056;-58
2023/04/28 03:34:38;;;;;;;11.05;8.13;;;;;;;10.47;73.01;99927.50;5054297;28;20494;-58
2023/04/28 03:37:05;;;;;;;15.07;9.73;;;;;;;10.49;73.75;99933.56;5055194;28;20056;-58
2023/04/28 03:39:32;;;;;;;15.82;9.60;;;;;;;10.42;73.99;99922.13;5055567;28;20067;-58
2023/04/28 03:42:01;;;;;;;10.73;9.27;;;;;;;10.57;73.76;99923.59;5055435;28;20152;-57
2023/04/28 03:44:28;;;;;;;10.65;8.90;;;;;;;10.61;74.06;99916.22;5055292;28;20053;-58
2023/04/28 03:46:55;;;;;;;12.55;9.10;;;;;;;10.65;74.37;99919.97;5054653;28;20524;-57
2023/04/28 03:49:23;;;;;;;11.35;8.88;;;;;;;10.72;73.32;99919.47;5052136;28;20057;-58
2023/04/28 03:51:51;;;;;;;14.20;8.82;;;;;;;10.80;73.98;99915.88;5055334;28;20379;-58
2023/04/28 03:54:18;;;;;;;10.15;8.23;;;;;;;10.84;73.94;99911.28;5055368;28;20409;-58
2023/04/28 03:56:45;;;;;;;12.23;9.88;;;;;;;10.94;73.19;99898.94;5055558;28;20056;-58
2023/04/28 03:59:17;;;;;;;14.35;9.30;;;;;;;10.99;73.69;99896.00;5054907;28;20052;-58
2023/04/28 04:01:45;;;;;;;14.07;8.15;;;;;;;10.96;73.17;99893.88;5053465;28;20413;-58
2023/04/28 04:04:12;;;;;;;10.35;8.90;;;;;;;11.04;73.41;99886.66;5049462;28;20498;-58
2023/04/28 04:06:39;;;;;;;11.20;8.63;;;;;;;11.16;73.29;99889.56;5055367;28;20056;-58
2023/04/28 04:09:09;;;;;;;12.10;9.35;;;;;;;11.07;73.10;99880.41;5055281;28;20049;-58
2023/04/28 04:11:37;;;;;;;11.80;9.23;;;;;;;11.23;73.67;99883.47;5052574;28;20045;-58
2023/04/28 04:14:05;;;;;;;10.75;8.55;;;;;;;11.28;73.41;99881.34;5054435;28;20064;-58
2023/04/28 04:16:35;;;;;;;13.27;9.57;;;;;;;11.34;73.00;99882.78;5053806;28;20053;-58
2023/04/28 04:19:03;;;;;;;11.10;9.02;;;;;;;11.45;73.10;99882.41;5038023;28;20410;-58
2023/04/28 04:21:31;;;;;;;12.73;8.95;;;;;;;11.50;73.22;99882.22;5053314;28;20072;-58
2023/04/28 04:23:58;;;;;;;11.40;8.88;;;;;;;11.60;72.90;99876.25;5054815;28;20123;-57
2023/04/28 04:26:25;;;;;;;8.38;7.47;;;;;;;11.47;72.82;99866.16;5054870;28;20060;-58
2023/04/28 04:28:53;;;;;;;11.90;7.75;;;;;;;11.58;72.12;99864.63;5054221;28;20052;-58
2023/04/28 04:31:21;;;;;;;8.98;6.80;;;;;;;11.64;72.01;99857.69;5054257;28;20513;-58
2023/04/28 04:33:50;;;;;;;7.45;6.43;;;;;;;11.55;71.11;99854.97;5050696;28;20486;-57
2023/04/28 04:36:17;;;;;;;9.32;5.75;;;;;;;11.46;71.09;99847.78;5034593;28;20054;-58
2023/04/28 04:38:45;;;;;;;11.95;6.65;;;;;;;11.42;70.79;99857.97;5034664;28;20057;-57
2023/04/28 04:41:12;;;;;;;9.07;6.88;;;;;;;11.35;70.87;99852.94;5044438;28;20402;-57
2023/04/28 04:43:39;;;;;;;7.68;6.40;;;;;;;11.36;70.90;99843.41;5036060;28;20058;-57
2023/04/28 04:46:07;;;;;;;10.48;6.50;;;;;;;11.26;70.75;99827.88;5034070;28;20080;-57
2023/04/28 04:48:34;;;;;;;10.90;6.38;;;;;;;11.17;71.01;99824.28;5036585;28;20053;-57
2023/04/28 04:51:03;;;;;;;8.05;6.32;;;;;;;11.16;71.33;99829.06;5036897;28;20486;-57
2023/04/28 04:53:30;;;;;;;8.32;6.63;;;;;;;11.23;71.50;99830.50;5046333;28;20516;-57
2023/04/28 04:56:00;;;;;;;12.60;6.90;;;;;;;11.22;71.93;99826.91;5033944;28;20414;-57
2023/04/28 04:58:27;;;;;;;10.38;6.85;;;;;;;11.21;71.41;99819.69;5036941;28;20060;-57
2023/04/28 05:00:54;;;;;;;9.13;5.88;;;;;;;11.27;71.36;99823.91;5033734;28;20050;-57
2023/04/28 05:03:22;;;;;;;8.40;6.07;;;;;;;11.27;71.60;99823.91;5036039;28;20052;-57
2023/04/28 05:05:49;;;;;;;7.95;6.32;;;;;;;11.39;71.40;99831.59;5053628;28;20053;-57
2023/04/28 05:08:18;;;;;;;9.63;6.38;;;;;;;11.45;71.36;99824.66;5053754;28;20052;-58
2023/04/28 05:10:45;;;;;;;9.52;6.57;;;;;;;11.47;71.46;99841.06;5047958;28;20052;-57
2023/04/28 05:13:12;;;;;;;11.35;7.30;;;;;;;11.61;72.06;99835.22;5040764;28;20053;-58
2023/04/28 05:15:39;;;;;;;8.13;6.80;;;;;;;11.73;72.06;99843.69;5040500;28;20073;-58
2023/04/28 05:18:09;;;;;;;11.65;7.35;;;;;;;11.84;71.74;99841.31;5037313;28;20057;-58
2023/04/28 05:20:37;;;;;;;;;;;;;;;11.80;70.96;99835.63;5033818;28;20049;-58
2023/04/28 05:23:04;;;;;;;7.93;6.25;;;;;;;11.86;71.13;99831.47;5038131;28;20293;-59
2023/04/28 05:25:33;;;;;;;8.65;6.07;;;;;;;11.78;70.70;99827.59;5039207;28;20405;-59
2023/04/28 05:28:03;;;;;;;9.27;6.70;;;;;;;11.77;70.43;99823.16;5047146;28;20081;-59
2023/04/28 05:30:30;;;;;;;8.80;6.03;;;;;;;11.71;70.26;99827.28;5039114;28;20076;-59
2023/04/28 05:32:58;;;;;;;10.23;6.88;;;;;;;11.69;70.46;99837.16;5051281;28;20718;-59
2023/04/28 05:35:25;;;;;;;9.73;7.68;;;;;;;11.74;71.24;99840.56;5042716;28;20049;-60
2023/04/28 05:37:53;;;;;;;8.63;6.93;;;;;;;11.93;71.47;99845.72;5047235;28;20537;-59
2023/04/28 05:40:21;;;;;;;12.18;6.93;;;;;;;12.00;71.21;99847.97;5052732;28;20056;-59
2023/04/28 05:42:49;;;;;;;14.90;8.10;;;;;;;11.70;75.69;99836.03;5042365;28;20076;-59
2023/04/28 05:45:17;;;;;;;13.52;10.30;;;;;;;11.55;77.16;99852.19;5031675;28;20056;-59
2023/04/28 05:47:44;;;;;;;11.20;7.72;;;;;;;11.63;76.45;99842.09;5047916;28;20056;-59
2023/04/28 05:50:11;;;;;;;14.18;11.82;;;;;;;11.69;76.79;99846.34;5035948;28;20486;-59
2023/04/28 05:52:38;;;;;;;12.70;9.35;;;;;;;11.75;76.52;99845.00;5049134;28;20521;-59
2023/04/28 05:55:07;;;;;;;11.82;8.40;;;;;;;11.82;76.25;99840.84;5053071;28;20064;-59
2023/04/28 05:57:34;;;;;;;11.93;8.52;;;;;;;11.86;75.65;99833.44;5049481;28;20466;-59
2023/04/28 06:00:04;;;;;;;8.23;7.07;;;;;;;11.89;74.42;99827.22;5037449;28;20045;-59
2023/04/28 06:02:31;;;;;;;11.27;6.97;;;;;;;11.86;73.83;99811.91;5032484;28;20490;-59
2023/04/28 06:04:58;;;;;;;12.07;8.32;;;;;;;11.86;73.75;99805.53;5043308;28;20053;-58
2023/04/28 06:07:25;;;;;;;9.63;7.70;;;;;;;11.85;74.76;99806.69;5052983;28;20049;-59
2023/04/28 06:09:52;;;;;;;11.52;7.85;;;;;;;11.91;74.53;99799.78;5053026;28;20056;-60
2023/04/28 06:12:20;;;;;;;8.75;7.30;;;;;;;11.93;73.72;99795.50;5052457;28;20059;-60
2023/04/28 06:14:47;;;;;;;8.07;7.20;;;;;;;11.96;73.43;99788.41;5049143;28;20501;-60
2023/04/28 06:17:15;;;;;;;10.30;7.20;;;;;;;12.02;72.52;99789.03;5050746;28;20053;-60
2023/04/28 06:19:43;;;;;;;9.82;6.90;;;;;;;12.03;72.15;99783.09;5042800;28;20056;-60
2023/04/28 06:22:10;;;;;;;8.77;7.07;;;;;;;11.97;71.98;99784.47;5046372;28;20053;-60
2023/04/28 06:24:37;;;;;;;8.95;6.75;;;;;;;12.16;71.25;99790.38;5052614;28;20049;-60
2023/04/28 06:27:05;;;;;;;10.23;7.65;;;;;;;12.32;71.46;99789.75;5049392;28;20061;-60
2023/04/28 06:29:33;;;;;;;10.00;7.43;;;;;;;12.57;72.00;99791.47;5047570;28;20052;-59
2023/04/28 06:32:00;;;;;;;12.15;8.68;;;;;;;12.74;72.20;99781.25;5040592;28;20053;-60
2023/04/28 06:34:29;;;;;;;10.13;8.10;;;;;;;13.07;72.43;99774.78;5040447;28;20053;-59
2023/04/28 06:36:58;;;;;;;7.90;6.65;;;;;;;13.38;72.04;99774.25;5042839;28;20057;-60
2023/04/28 06:39:25;;;;;;;11.82;8.05;;;;;;;13.69;71.85;99770.84;5045709;28;20049;-60
2023/04/28 06:41:53;;;;;;;9.55;6.70;;;;;;;13.90;71.02;99778.22;5036274;28;20061;-59
2023/04/28 06:44:20;;;;;;;8.35;6.82;;;;;;;13.99;69.09;99776.13;5027377;28;20355;-59
2023/04/28 06:46:47;;;;;;;8.38;6.45;;;;;;;14.05;67.45;99763.50;5033738;28;20076;-59
2023/04/28 06:49:14;;;;;;;8.75;6.18;;;;;;;14.12;66.14;99768.50;5036917;28;20414;-59
2023/04/28 06:51:43;;;;;;;7.50;5.53;;;;;;;14.16;65.29;99758.22;5040311;28;20391;-62
2023/04/28 06:54:10;;;;;;;8.27;6.18;;;;;;;14.09;65.54;99764.44;5043994;28;20053;-58
2023/04/28 06:56:37;;;;;;;7.55;6.80;;;;;;;14.09;64.63;99769.19;5042504;28;20045;-58
2023/04/28 06:59:05;;;;;;;8.85;6.07;;;;;;;14.24;64.98;99759.22;5044293;28;20424;-58
2023/04/28 07:01:32;;;;;;;8.38;5.90;;;;;;;14.33;64.14;99754.28;5042015;28;20056;-56
2023/04/28 07:03:59;;;;;;;7.75;5.90;;;;;;;14.64;64.48;99752.75;5041143;28;20500;-62
2023/04/28 07:06:28;;;;;;;7.70;5.95;;;;;;;14.61;63.57;99741.09;5038267;28;20052;-61
2023/04/28 07:08:57;;;;;;;7.90;5.85;;;;;;;14.73;62.45;99740.19;5041635;28;20050;-60
2023/04/28 07:11:24;;;;;;;6.82;5.22;;;;;;;15.06;62.53;99743.81;5041053;28;20053;-61
2023/04/28 07:13:51;;;;;;;8.18;5.32;;;;;;;14.96;62.92;99754.41;5040984;28;20045;-61
2023/04/28 07:16:20;;;;;;;7.10;5.20;;;;;;;14.98;62.01;99752.03;5040404;28;20068;-60
2023/04/28 07:18:47;;;;;;;6.55;5.03;;;;;;;14.79;63.08;99746.34;5038582;28;20046;-60
2023/04/28 07:21:14;;;;;;;6.82;5.57;;;;;;;14.88;63.13;99755.38;5040110;28;20064;-61
2023/04/28 07:23:42;;;;;;;9.18;5.97;;;;;;;15.17;63.05;99756.13;5042878;28;20053;-61
2023/04/28 07:26:10;;;;;;;5.43;4.78;;;;;;;15.45;62.63;99755.16;5038970;28;20052;-61
2023/04/28 07:28:38;;;;;;;8.73;4.53;;;;;;;15.15;60.63;99753.66;5044598;28;20061;-63
2023/04/28 07:31:05;;;;;;;6.63;5.10;;;;;;;15.04;62.02;99748.97;5043039;28;20053;-60
2023/04/28 07:33:32;;;;;;;6.88;5.10;;;;;;;15.07;62.17;99740.63;5041658;28;20529;-61
2023/04/28 07:35:59;;;;;;;6.63;4.63;;;;;;;15.38;61.45;99739.78;5041618;28;20057;-61
2023/04/28 07:38:27;;;;;;;6.50;5.03;;;;;;;15.65;61.69;99730.78;5043462;28;20053;-61
2023/04/28 07:40:54;;;;;;;5.88;4.85;;;;;;;15.90;60.19;99725.72;5045024;28;20045;-61
2023/04/28 07:43:23;;;;;;;6.20;4.93;;;;;;;16.03;61.09;99730.00;5045343;28;20052;-61
2023/04/28 07:45:56;;;;;;;8.23;5.15;;;;;;;16.24;60.25;99738.06;5040644;28;20068;-61
2023/04/28 07:48:23;;;;;;;5.53;5.03;;;;;;;16.56;59.16;99732.25;5036169;28;20049;-61
2023/04/28 07:50:50;;;;;;;6.03;4.43;;;;;;;16.69;59.80;99732.88;5042866;28;20049;-60
2023/04/28 07:53:17;;;;;;;7.05;4.88;;;;;;;16.85;58.47;99727.97;5049793;28;20049;-61
2023/04/28 07:55:45;;;;;;;6.78;4.65;;;;;;;16.99;58.19;99716.97;5047361;28;20123;-61
2023/04/28 07:58:12;;;;;;;6.25;4.50;;;;;;;17.02;57.82;99727.47;5048487;28;20057;-61
2023/04/28 08:00:41;;;;;;;7.25;4.72;;;;;;;16.98;58.03;99734.22;5045108;28;20045;-61
2023/04/28 08:03:08;;;;;;;7.07;4.72;;;;;;;17.17;58.33;99730.53;5043572;28;20364;-61
2023/04/28 08:05:35;;;;;;;7.50;4.90;;;;;;;17.48;58.27;99737.03;5049195;28;20049;-62
2023/04/28 08:08:03;;;;;;;6.28;4.88;;;;;;;17.76;57.77;99728.97;5046942;28;20057;-62
2023/04/28 08:10:30;;;;;;;6.55;5.57;;;;;;;18.64;56.29;99736.09;5044602;28;20574;-62
2023/04/28 08:12:58;;;;;;;6.97;4.75;;;;;;;19.54;54.78;99727.59;5041937;28;20041;-62
2023/04/28 08:15:26;;;;;;;5.68;4.40;;;;;;;20.28;52.58;99729.19;5041802;28;20063;-58
2023/04/28 08:17:55;;;;;;;5.18;4.68;;;;;;;20.37;50.44;99732.47;5041560;28;20049;-58
2023/04/28 08:20:22;;;;;;;5.82;4.40;;;;;;;19.49;50.97;99731.63;5048664;28;20057;-58
2023/04/28 08:22:50;;;;;;;6.70;4.25;;;;;;;19.99;49.74;99733.94;5048487;28;20052;-58
2023/04/28 08:25:18;;;;;;;4.68;3.80;;;;;;;20.70;48.98;99730.56;5047507;28;20064;-58
2023/04/28 08:27:45;;;;;;;5.60;4.30;;;;;;;20.85;47.97;99732.22;5046282;28;20053;-58
2023/04/28 08:30:12;;;;;;;5.13;3.63;;;;;;;20.95;47.70;99736.25;5040470;28;20516;-62
2023/04/28 08:32:40;;;;;;;6.07;4.18;;;;;;;20.70;47.00;99753.19;5043685;28;20525;-63
2023/04/28 08:35:09;;;;;;;6.25;4.03;;;;;;;20.36;47.90;99730.84;5047625;28;20055;-63
2023/04/28 08:37:36;;;;;;;4.45;3.92;;;;;;;20.85;48.00;99748.38;5043567;28;20049;-63
2023/04/28 08:40:08;;;;;;;6.85;4.90;;;;;;;21.41;46.16;99726.94;5047905;28;20064;-63
2023/04/28 08:42:36;;;;;;;6.35;4.47;;;;;;;20.28;47.41;99743.34;5043495;28;20056;-63
2023/04/28 08:45:04;;;;;;;6.28;4.30;;;;;;;20.08;47.99;99752.16;5042979;28;20049;-59
2023/04/28 08:47:34;;;;;;;7.32;4.38;;;;;;;19.55;49.53;99744.16;5038673;28;20067;-59
2023/04/28 08:50:06;;;;;;;7.07;5.47;;;;;;;19.73;49.38;99749.94;5042351;28;20061;-59
2023/04/28 08:52:36;;;;;;;6.72;4.72;;;;;;;20.07;49.05;99738.41;5045895;28;20049;-59
2023/04/28 08:55:06;;;;;;;;;;;;;;;19.35;49.58;99742.81;5042054;28;20056;-56
2023/04/28 08:57:37;;;;;;;7.13;4.82;;;;;;;19.53;49.86;99745.75;5043963;28;19920;-58
2023/04/28 09:00:06;;;;;;;5.65;4.60;;;;;;;19.68;49.35;99739.00;5043996;28;20057;-58
2023/04/28 09:02:33;;;;;;;6.10;5.07;;;;;;;19.89;48.72;99744.00;5046499;28;20509;-58
2023/04/28 09:05:00;;;;;;;6.15;4.78;;;;;;;19.81;50.00;99734.66;5044485;28;20056;-58
2023/04/28 09:07:27;;;;;;;6.40;4.65;;;;;;;20.67;48.42;99725.72;5048175;28;20049;-58
2023/04/28 09:10:18;;;;;;;6.75;5.22;;;;;;;20.76;47.46;99730.97;5044780;28;20045;-58
2023/04/28 09:12:45;;;;;;;5.18;4.25;;;;;;;20.91;47.80;99721.28;5041379;28;20060;-58
2023/04/28 09:15:26;;;;;;;6.05;4.38;;;;;;;20.60;47.64;99720.84;5043413;28;20056;-58
2023/04/28 09:17:53;;;;;;;5.43;4.20;;;;;;;20.31;48.04;99719.94;5042546;28;20057;-58
2023/04/28 09:20:21;;;;;;;7.93;5.00;;;;;;;19.84;49.50;99730.22;5044417;28;20053;-58
2023/04/28 09:22:49;;;;;;;8.20;5.57;;;;;;;19.39;50.97;99727.50;5047554;28;20056;-58
2023/04/28 09:25:20;;;;;;;8.30;5.05;;;;;;;19.48;50.86;99725.13;5046432;28;20049;-58
2023/04/28 09:27:47;;;;;;;7.05;5.22;;;;;;;19.40;50.98;99729.16;5043877;28;20050;-58
2023/04/28 09:30:14;;;;;;;8.15;5.40;;;;;;;18.69;52.63;99728.47;5046818;28;20052;-58
2023/04/28 09:32:42;;;;;;;6.30;4.82;;;;;;;19.00;51.69;99725.19;5042907;28;20053;-58
2023/04/28 09:35:10;;;;;;;8.43;5.55;;;;;;;18.77;52.75;99727.34;5044823;28;20056;-58
2023/04/28 09:37:37;;;;;;;6.80;5.35;;;;;;;18.70;52.83;99716.81;5048522;28;20057;-58
2023/04/28 09:40:08;;;;;;;6.75;5.10;;;;;;;18.97;52.88;99723.16;5045345;28;20053;-58
2023/04/28 09:42:38;;;;;;;8.25;5.07;;;;;;;18.43;53.40;99721.78;5046619;28;20053;-58
2023/04/28 09:45:07;;;;;;;6.55;4.65;;;;;;;18.85;53.75;99715.78;5043404;28;20045;-58
2023/04/28 09:47:35;;;;;;;;;;;;;;;19.55;51.36;99712.25;5046605;28;20401;-58
2023/04/28 09:50:05;;;;;;;9.25;4.85;;;;;;;19.25;52.03;99718.94;5041571;28;19936;-58
2023/04/28 09:52:33;;;;;;;6.55;5.13;;;;;;;19.26;51.73;99727.00;5047522;28;20564;-58
2023/04/28 09:55:02;;;;;;;7.27;5.10;;;;;;;19.49;51.65;99723.16;5046537;28;20525;-58
2023/04/28 09:57:31;;;;;;;9.02;4.85;;;;;;;20.13;50.46;99713.41;5047338;28;20067;-58
2023/04/28 10:00:01;;;;;;;6.15;4.60;;;;;;;20.64;49.48;99713.19;5040388;28;20064;-58
2023/04/28 10:02:29;;;;;;;5.93;4.68;;;;;;;20.84;48.84;99701.47;5046708;28;20067;-62
2023/04/28 10:04:57;;;;;;;7.13;5.38;;;;;;;21.45;47.29;99705.09;5043311;28;20049;-62
2023/04/28 10:07:24;;;;;;;6.57;4.53;;;;;;;22.07;46.02;99705.75;5045912;28;20486;-62
2023/04/28 10:09:52;;;;;;;5.70;4.65;;;;;;;21.63;45.83;99709.94;5043086;28;20057;-62
2023/04/28 10:12:21;;;;;;;6.25;5.07;;;;;;;21.20;46.92;99716.44;5044281;28;20049;-62
2023/04/28 10:14:49;;;;;;;5.57;4.73;;;;;;;21.28;46.90;99708.75;5041434;28;20393;-62
2023/04/28 10:17:18;;;;;;;7.95;5.07;;;;;;;20.99;47.66;99707.94;5040828;28;20052;-62
2023/04/28 10:19:47;;;;;;;11.02;8.63;;;;;;;20.77;48.19;99707.94;5042413;28;20056;-62
2023/04/28 10:22:31;;;;;;;9.50;7.07;;;;;;;20.43;48.86;99707.41;5039523;28;20072;-57
2023/04/28 10:25:26;;;;;;;6.68;5.00;;;;;;;20.36;50.07;99716.72;5043983;28;20057;-62
2023/04/28 10:27:54;;;;;;;6.20;4.85;;;;;;;20.14;50.63;99710.19;5035455;28;20065;-61
2023/04/28 10:30:22;;;;;;;6.28;4.85;;;;;;;20.11;50.86;99707.34;5035529;28;20053;-62
2023/04/28 10:33:28;;;;;;;6.47;4.43;;;;;;;21.18;49.15;99703.91;5038482;28;20049;-61
2023/04/28 10:35:55;;;;;;;5.78;4.60;;;;;;;22.51;47.89;99704.31;5035054;28;20045;-62
2023/04/28 10:38:22;;;;;;;7.25;4.80;;;;;;;22.49;46.68;99712.44;5039891;28;20049;-63
2023/04/28 10:40:52;;;;;;;5.07;3.95;;;;;;;22.44;47.58;99705.16;5046906;28;20049;-62
2023/04/28 10:43:39;;;;;;;4.63;4.13;;;;;;;21.57;49.02;99701.03;5038094;28;20060;-62
2023/04/28 10:46:10;;;;;;;5.25;4.57;;;;;;;21.87;47.94;99694.06;5032637;28;20056;-63
2023/04/28 10:48:57;;;;;;;5.75;4.50;;;;;;;22.92;46.74;99691.47;5037552;28;20454;-62
2023/04/28 10:51:29;;;;;;;5.47;4.65;;;;;;;23.38;44.88;99688.22;5039704;28;20045;-62
2023/04/28 10:54:18;;;;;;;5.32;4.35;;;;;;;24.60;41.36;99678.22;5041548;28;20064;-61
2023/04/28 10:57:20;;;;;;;5.55;4.72;;;;;;;24.56;42.23;99682.38;5039549;28;20051;-62
2023/04/28 10:59:49;;;;;;;5.63;4.90;;;;;;;24.14;42.65;99673.97;5037197;28;20045;-62
2023/04/28 11:02:49;;;;;;;5.13;4.35;;;;;;;23.55;44.03;99682.78;5036721;28;20049;-62
2023/04/28 11:05:18;;;;;;;5.38;4.35;;;;;;;23.43;44.70;99681.28;5036890;28;20049;-62
2023/04/28 11:08:32;;;;;;;6.55;5.30;;;;;;;23.06;45.03;99682.84;5036105;28;20517;-63
2023/04/28 11:11:18;;;;;;;6.63;4.80;;;;;;;22.22;46.79;99681.75;5040303;28;20064;-63
2023/04/28 11:13:46;;;;;;;4.53;3.80;;;;;;;22.01;47.48;99677.00;5041134;28;20071;-62
2023/04/28 11:16:22;;;;;;;5.88;3.90;;;;;;;21.55;48.50;99680.81;5041105;28;20064;-63
2023/04/28 11:19:02;;;;;;;4.85;4.20;;;;;;;21.60;48.51;99676.72;5038543;28;20049;-62
2023/04/28 11:21:32;;;;;;;5.38;4.00;;;;;;;21.70;48.87;99684.41;5038275;28;20375;-62
2023/04/28 11:24:00;;;;;;;5.53;4.10;;;;;;;21.32;50.00;99677.59;5038058;28;20053;-62
2023/04/28 11:26:28;;;;;;;5.80;4.40;;;;;;;21.11;51.05;99698.25;5043224;28;20068;-62
2023/04/28 11:28:57;;;;;;;5.53;4.50;;;;;;;20.72;52.87;99685.69;5041861;28;20053;-62
2023/04/28 11:31:26;;;;;;;4.90;3.70;;;;;;;20.40;53.39;99688.44;5038519;28;20049;-62
2023/04/28 11:33:58;;;;;;;6.00;4.28;;;;;;;20.10;54.58;99686.75;5046899;28;20057;-62
2023/04/28 11:36:32;;;;;;;5.78;4.40;;;;;;;19.98;54.32;99689.91;5042342;28;20490;-62
2023/04/28 11:39:00;;;;;;;4.30;3.90;;;;;;;19.73;54.87;99703.94;5038651;28;20052;-62
2023/04/28 11:41:27;;;;;;;6.05;3.58;;;;;;;19.24;55.77;99706.03;5043975;28;20131;-62